createdAt,value
2023-02-16T00:00:40.407Z,17.60
2023-02-16T00:03:29.642Z,17.57
2023-02-16T00:05:58.159Z,17.57
2023-02-16T00:08:26.709Z,17.53
2023-02-16T00:11:13.404Z,17.51
2023-02-16T00:13:45.089Z,17.50
2023-02-16T00:16:24.547Z,17.46
2023-02-16T00:18:53.375Z,17.46
2023-02-16T00:21:21.956Z,17.45
2023-02-16T00:23:50.685Z,17.42
2023-02-16T00:26:24.890Z,17.41
2023-02-16T00:28:55.400Z,17.40
2023-02-16T00:31:27.484Z,17.39
2023-02-16T00:33:57.332Z,17.37
2023-02-16T00:36:25.696Z,17.34
2023-02-16T00:38:54.400Z,17.35
2023-02-16T00:41:42.183Z,17.30
2023-02-16T00:44:19.616Z,17.30
2023-02-16T00:46:48.285Z,17.28
2023-02-16T00:49:18.811Z,17.27
2023-02-16T00:51:49.842Z,17.26
2023-02-16T00:54:18.630Z,17.25
2023-02-16T00:56:46.892Z,17.23
2023-02-16T00:59:20.850Z,17.22
2023-02-16T01:01:49.846Z,17.21
2023-02-16T01:04:23.612Z,17.16
2023-02-16T01:07:10.651Z,17.17
2023-02-16T01:09:58.230Z,17.18
2023-02-16T01:12:28.778Z,17.14
2023-02-16T01:14:57.543Z,17.16
2023-02-16T01:17:25.798Z,17.12
2023-02-16T01:19:55.852Z,17.10
2023-02-16T01:22:24.498Z,17.12
2023-02-16T01:24:53.335Z,17.10
2023-02-16T01:27:21.578Z,17.11
2023-02-16T01:29:50.089Z,17.10
2023-02-16T01:32:18.891Z,17.08
2023-02-16T01:34:47.578Z,17.07
2023-02-16T01:37:16.402Z,17.06
2023-02-16T01:39:46.011Z,17.04
2023-02-16T01:42:28.326Z,17.03
2023-02-16T01:45:11.621Z,17.02
2023-02-16T01:48:09.909Z,17.00
2023-02-16T01:51:07.199Z,17.00
2023-02-16T01:53:48.950Z,16.94
2023-02-16T01:56:33.159Z,16.95
2023-02-16T01:59:15.807Z,16.95
2023-02-16T02:02:01.044Z,16.94
2023-02-16T02:05:37.589Z,16.88
2023-02-16T02:08:27.940Z,16.92
2023-02-16T02:11:24.502Z,16.86
2023-02-16T02:14:31.800Z,16.90
2023-02-16T02:17:05.467Z,16.88
2023-02-16T02:20:00.208Z,16.83
2023-02-16T02:23:25.335Z,16.86
2023-02-16T02:26:21.372Z,16.85
2023-02-16T02:29:20.213Z,16.85
2023-02-16T02:32:15.724Z,16.84
2023-02-16T02:35:12.790Z,16.82
2023-02-16T02:38:10.138Z,16.80
2023-02-16T02:40:53.846Z,16.78
2023-02-16T02:43:45.681Z,16.78
2023-02-16T02:46:23.766Z,16.77
2023-02-16T02:48:52.609Z,16.76
2023-02-16T02:51:28.749Z,16.75
2023-02-16T02:54:48.539Z,16.74
2023-02-16T02:57:44.823Z,16.71
2023-02-16T03:00:39.189Z,16.71
2023-02-16T03:03:15.272Z,16.67
2023-02-16T03:05:53.880Z,16.65
2023-02-16T03:08:25.790Z,16.68
2023-02-16T03:11:34.131Z,16.67
2023-02-16T03:14:19.852Z,16.63
2023-02-16T03:17:18.384Z,16.66
2023-02-16T03:20:06.942Z,16.65
2023-02-16T03:22:54.542Z,16.64
2023-02-16T03:25:43.332Z,16.62
2023-02-16T03:28:30.668Z,16.61
2023-02-16T03:30:59.092Z,16.60
2023-02-16T03:33:28.139Z,16.56
2023-02-16T03:35:56.606Z,16.59
2023-02-16T03:38:25.310Z,16.58
2023-02-16T03:40:53.729Z,16.57
2023-02-16T03:43:26.626Z,16.56
2023-02-16T03:45:55.180Z,16.56
2023-02-16T03:48:24.065Z,16.54
2023-02-16T03:50:52.357Z,16.51
2023-02-16T03:53:20.979Z,16.52
2023-02-16T03:55:49.438Z,16.50
2023-02-16T03:58:22.070Z,16.51
2023-02-16T04:00:51.391Z,16.47
2023-02-16T04:03:20.098Z,16.50
2023-02-16T04:05:48.392Z,16.48
2023-02-16T04:08:17.053Z,16.48
2023-02-16T04:10:45.329Z,16.42
2023-02-16T04:13:14.044Z,16.47
2023-02-16T04:15:42.313Z,16.45
2023-02-16T04:18:11.100Z,16.46
2023-02-16T04:20:39.483Z,16.44
2023-02-16T04:23:08.341Z,16.39
2023-02-16T04:25:36.630Z,16.43
2023-02-16T04:28:05.308Z,16.42
2023-02-16T04:30:33.634Z,16.41
2023-02-16T04:33:02.259Z,16.41
2023-02-16T04:35:30.596Z,16.39
2023-02-16T04:37:59.197Z,16.39
2023-02-16T04:40:27.540Z,16.45
2023-02-16T04:42:56.290Z,16.45
2023-02-16T04:45:24.692Z,16.55
2023-02-16T04:47:53.575Z,16.62
2023-02-16T04:50:21.883Z,16.66
2023-02-16T04:52:50.518Z,16.78
2023-02-16T04:55:18.984Z,16.84
2023-02-16T04:57:47.625Z,16.94
2023-02-16T05:00:16.249Z,17.00
2023-02-16T05:02:45.204Z,17.15
2023-02-16T05:05:13.590Z,17.22
2023-02-16T05:07:42.286Z,17.39
2023-02-16T05:10:10.860Z,17.43
2023-02-16T05:12:57.999Z,17.52
2023-02-16T05:15:26.284Z,17.55
2023-02-16T05:17:54.818Z,17.54
2023-02-16T05:20:43.135Z,17.57
2023-02-16T05:23:12.037Z,17.54
2023-02-16T05:25:40.394Z,17.49
2023-02-16T05:28:09.084Z,17.51
2023-02-16T05:30:37.388Z,17.45
2023-02-16T05:33:06.061Z,17.43
2023-02-16T05:35:35.415Z,17.44
2023-02-16T05:38:04.090Z,17.41
2023-02-16T05:40:32.437Z,17.40
2023-02-16T05:43:01.308Z,17.41
2023-02-16T05:45:29.589Z,17.31
2023-02-16T05:47:58.193Z,17.35
2023-02-16T05:50:26.553Z,17.30
2023-02-16T05:52:55.183Z,17.29
2023-02-16T05:55:23.780Z,17.26
2023-02-16T05:57:52.431Z,17.20
2023-02-16T06:00:20.924Z,17.21
2023-02-16T06:02:49.624Z,17.17
2023-02-16T06:05:18.147Z,17.17
2023-02-16T06:07:46.934Z,17.22
2023-02-16T06:10:16.701Z,17.20
2023-02-16T06:12:45.553Z,17.23
2023-02-16T06:15:13.914Z,17.27
2023-02-16T06:17:44.770Z,17.37
2023-02-16T06:20:13.503Z,17.49
2023-02-16T06:22:42.132Z,17.47
2023-02-16T06:25:10.660Z,17.59
2023-02-16T06:27:39.279Z,17.61
2023-02-16T06:30:08.866Z,17.65
2023-02-16T06:32:37.777Z,17.63
2023-02-16T06:35:06.611Z,17.62
2023-02-16T06:37:35.212Z,17.57
2023-02-16T06:40:03.770Z,17.62
2023-02-16T06:42:32.372Z,17.59
2023-02-16T06:45:00.732Z,17.67
2023-02-16T06:47:29.778Z,17.54
2023-02-16T06:49:58.157Z,17.59
2023-02-16T06:52:27.126Z,17.52
2023-02-16T06:54:55.452Z,17.51
2023-02-16T06:57:24.088Z,17.51
2023-02-16T06:59:52.314Z,17.52
2023-02-16T07:02:20.888Z,17.49
2023-02-16T07:04:49.326Z,17.46
2023-02-16T07:07:17.887Z,17.46
2023-02-16T07:09:46.099Z,17.41
2023-02-16T07:12:14.628Z,17.40
2023-02-16T07:14:44.138Z,17.35
2023-02-16T07:17:13.165Z,17.32
2023-02-16T07:19:41.825Z,17.32
2023-02-16T07:22:10.548Z,17.31
2023-02-16T07:24:38.809Z,17.23
2023-02-16T07:27:08.956Z,17.29
2023-02-16T07:29:37.319Z,17.24
2023-02-16T07:32:06.239Z,17.25
2023-02-16T07:34:34.606Z,17.21
2023-02-16T07:37:03.296Z,17.21
2023-02-16T07:39:31.989Z,17.20
2023-02-16T07:42:01.058Z,17.19
2023-02-16T07:44:29.303Z,17.17
2023-02-16T07:46:58.196Z,17.16
2023-02-16T07:49:26.447Z,17.14
2023-02-16T07:51:55.036Z,17.13
2023-02-16T07:54:23.344Z,17.10
2023-02-16T07:56:51.981Z,17.08
2023-02-16T07:59:20.307Z,17.09
2023-02-16T08:01:49.280Z,17.07
2023-02-16T08:04:17.672Z,17.07
2023-02-16T08:06:48.738Z,17.02
2023-02-16T08:09:17.291Z,17.04
2023-02-16T08:11:45.974Z,17.01
2023-02-16T08:14:16.437Z,16.98
2023-02-16T08:16:45.164Z,16.97
2023-02-16T08:19:14.080Z,16.97
2023-02-16T08:21:49.546Z,16.99
2023-02-16T08:24:17.838Z,16.96
2023-02-16T08:26:49.949Z,16.97
2023-02-16T08:29:18.311Z,16.94
2023-02-16T08:31:47.999Z,16.95
2023-02-16T08:34:19.184Z,16.91
2023-02-16T08:36:48.597Z,16.90
2023-02-16T08:39:21.190Z,16.89
2023-02-16T08:41:50.687Z,16.87
2023-02-16T08:44:19.992Z,16.86
2023-02-16T08:46:49.170Z,16.85
2023-02-16T08:49:18.919Z,16.83
2023-02-16T08:51:52.926Z,16.80
2023-02-16T08:54:28.340Z,16.81
2023-02-16T08:56:59.172Z,16.82
2023-02-16T08:59:28.815Z,16.81
2023-02-16T09:01:58.611Z,16.85
2023-02-16T09:04:29.349Z,16.84
2023-02-16T09:06:58.600Z,16.78
2023-02-16T09:09:27.258Z,16.81
2023-02-16T09:11:56.340Z,16.79
2023-02-16T09:14:24.801Z,16.77
2023-02-16T09:16:53.797Z,16.80
2023-02-16T09:19:22.566Z,16.78
2023-02-16T09:21:52.204Z,16.77
2023-02-16T09:24:22.174Z,16.78
2023-02-16T09:26:52.196Z,16.78
2023-02-16T09:29:21.458Z,16.78
2023-02-16T09:31:50.415Z,16.75
2023-02-16T09:34:20.603Z,16.74
2023-02-16T09:36:49.945Z,16.74
2023-02-16T09:39:19.428Z,16.75
2023-02-16T09:42:16.948Z,16.73
2023-02-16T09:44:48.471Z,16.78
2023-02-16T09:47:31.398Z,16.81
2023-02-16T09:50:38.344Z,16.79
2023-02-16T09:53:23.176Z,16.82
2023-02-16T09:56:15.501Z,16.85
2023-02-16T09:59:02.518Z,16.92
2023-02-16T10:01:56.713Z,16.89
2023-02-16T10:04:35.676Z,16.96
2023-02-16T10:07:29.326Z,16.96
2023-02-16T10:09:57.973Z,16.90
2023-02-16T10:12:38.735Z,16.95
2023-02-16T10:15:23.782Z,16.97
2023-02-16T10:18:26.911Z,16.93
2023-02-16T10:20:58.118Z,16.85
2023-02-16T10:23:39.201Z,16.84
2023-02-16T10:26:14.012Z,16.84
2023-02-16T10:29:00.377Z,16.91
2023-02-16T10:31:43.786Z,16.90
2023-02-16T10:34:18.400Z,16.88
2023-02-16T10:37:05.124Z,16.94
2023-02-16T10:39:48.736Z,17.06
2023-02-16T10:42:51.947Z,17.21
2023-02-16T10:45:54.146Z,17.26
2023-02-16T10:48:23.823Z,17.40
2023-02-16T10:51:13.279Z,17.36
2023-02-16T10:54:01.588Z,17.49
2023-02-16T10:56:59.960Z,17.60
2023-02-16T10:59:42.184Z,17.69
2023-02-16T11:02:26.610Z,17.76
2023-02-16T11:04:58.724Z,17.84
2023-02-16T11:07:29.332Z,17.87
2023-02-16T11:10:01.821Z,17.98
2023-02-16T11:12:55.873Z,17.98
2023-02-16T11:15:25.442Z,17.99
2023-02-16T11:17:58.303Z,17.99
2023-02-16T11:20:32.079Z,17.93
2023-02-16T11:23:32.020Z,18.01
2023-02-16T11:26:06.401Z,17.95
2023-02-16T11:28:37.086Z,17.95
2023-02-16T11:31:23.655Z,17.94
2023-02-16T11:34:18.177Z,17.94
2023-02-16T11:36:47.255Z,17.92
2023-02-16T11:39:21.906Z,17.90
2023-02-16T11:41:54.844Z,17.87
2023-02-16T11:44:34.428Z,17.82
2023-02-16T11:47:06.724Z,17.85
2023-02-16T11:49:40.798Z,17.85
2023-02-16T11:52:24.453Z,17.89
2023-02-16T11:54:56.027Z,17.74
2023-02-16T11:57:33.951Z,17.77
2023-02-16T12:00:14.010Z,17.83
2023-02-16T12:02:48.697Z,17.82
2023-02-16T12:05:39.460Z,17.81
2023-02-16T12:08:32.623Z,17.78
2023-02-16T12:11:48.786Z,17.76
2023-02-16T12:15:04.104Z,17.74
2023-02-16T12:17:48.899Z,17.75
2023-02-16T12:20:49.947Z,17.75
2023-02-16T12:23:41.835Z,17.69
2023-02-16T12:26:33.479Z,17.72
2023-02-16T12:29:38.417Z,17.69
2023-02-16T12:32:48.136Z,17.49
2023-02-16T12:35:59.012Z,17.23
2023-02-16T12:38:40.988Z,17.22
2023-02-16T12:42:23.155Z,17.26
2023-02-16T12:45:01.763Z,17.11
2023-02-16T12:47:41.534Z,17.05
2023-02-16T12:50:31.484Z,16.82
2023-02-16T12:53:36.537Z,16.87
2023-02-16T12:56:11.767Z,16.99
2023-02-16T12:58:49.393Z,16.92
2023-02-16T13:01:29.832Z,16.98
2023-02-16T13:04:33.953Z,17.05
2023-02-16T13:07:32.766Z,17.11
2023-02-16T13:10:27.088Z,17.21
2023-02-16T13:13:18.088Z,17.24
2023-02-16T13:15:56.779Z,17.36
2023-02-16T13:18:32.315Z,17.37
2023-02-16T13:21:51.335Z,17.45
2023-02-16T13:24:55.339Z,17.37
2023-02-16T13:27:37.533Z,17.42
2023-02-16T13:30:48.524Z,17.42
2023-02-16T13:34:12.836Z,17.43
2023-02-16T13:37:02.381Z,17.45
2023-02-16T13:39:41.866Z,17.44
2023-02-16T13:42:19.110Z,17.46
2023-02-16T13:44:58.480Z,17.48
2023-02-16T13:47:30.870Z,17.48
2023-02-16T13:50:05.779Z,17.49
2023-02-16T13:52:44.665Z,17.51
2023-02-16T13:55:27.239Z,17.52
2023-02-16T13:58:27.595Z,17.50
2023-02-16T14:00:56.070Z,17.46
2023-02-16T14:03:24.910Z,17.50
2023-02-16T14:05:57.404Z,17.47
2023-02-16T14:08:30.505Z,17.49
2023-02-16T14:11:01.925Z,17.48
2023-02-16T14:13:39.320Z,17.48
2023-02-16T14:16:17.009Z,17.45
2023-02-16T14:18:54.057Z,17.42
2023-02-16T14:21:42.131Z,17.44
2023-02-16T14:24:28.952Z,17.40
2023-02-16T14:27:04.693Z,17.44
2023-02-16T14:29:44.231Z,17.43
2023-02-16T14:32:34.020Z,17.43
2023-02-16T14:35:25.665Z,17.43
2023-02-16T14:37:57.893Z,17.43
2023-02-16T14:40:35.617Z,17.44
2023-02-16T14:43:22.881Z,17.41
2023-02-16T14:46:12.809Z,17.39
2023-02-16T14:49:05.257Z,17.42
2023-02-16T14:51:53.738Z,17.43
2023-02-16T14:55:03.876Z,17.41
2023-02-16T14:57:48.000Z,17.37
2023-02-16T15:01:04.365Z,17.35
2023-02-16T15:03:48.422Z,17.29
2023-02-16T15:06:39.148Z,17.33
2023-02-16T15:09:36.100Z,17.27
2023-02-16T15:12:22.766Z,17.27
2023-02-16T15:15:03.060Z,17.25
2023-02-16T15:17:35.744Z,17.21
2023-02-16T15:20:07.585Z,17.19
2023-02-16T15:22:39.196Z,17.21
2023-02-16T15:25:36.105Z,17.15
2023-02-16T15:28:27.024Z,17.15
2023-02-16T15:31:07.604Z,17.13
2023-02-16T15:33:44.306Z,17.14
2023-02-16T15:36:16.466Z,17.12
2023-02-16T15:38:57.926Z,17.08
2023-02-16T15:41:30.427Z,17.08
2023-02-16T15:43:59.096Z,17.07
2023-02-16T15:46:36.245Z,17.06
2023-02-16T15:49:27.096Z,17.03
2023-02-16T15:51:57.140Z,17.04
2023-02-16T15:54:31.402Z,16.98
2023-02-16T15:57:32.204Z,16.98
2023-02-16T16:00:23.432Z,16.95
2023-02-16T16:02:56.500Z,16.93
2023-02-16T16:05:26.721Z,16.93
2023-02-16T16:07:55.899Z,16.95
2023-02-16T16:10:33.635Z,17.03
2023-02-16T16:13:09.025Z,17.15
2023-02-16T16:15:41.779Z,17.23
2023-02-16T16:18:43.498Z,17.31
2023-02-16T16:21:23.894Z,17.36
2023-02-16T16:24:04.626Z,17.44
2023-02-16T16:26:56.691Z,17.53
2023-02-16T16:29:34.084Z,17.56
2023-02-16T16:32:02.671Z,17.66
2023-02-16T16:34:41.040Z,17.73
2023-02-16T16:37:33.707Z,17.83
2023-02-16T16:40:23.666Z,17.92
2023-02-16T16:43:06.735Z,17.90
2023-02-16T16:45:41.083Z,17.93
2023-02-16T16:48:31.454Z,18.13
2023-02-16T16:51:23.991Z,18.30
2023-02-16T16:54:04.341Z,18.35
2023-02-16T16:56:37.949Z,18.29
2023-02-16T16:59:06.645Z,18.42
2023-02-16T17:01:35.254Z,18.47
2023-02-16T17:04:03.675Z,18.44
2023-02-16T17:06:32.382Z,18.59
2023-02-16T17:09:01.935Z,18.58
2023-02-16T17:11:35.973Z,18.72
2023-02-16T17:14:16.944Z,18.75
2023-02-16T17:16:48.142Z,18.79
2023-02-16T17:19:18.090Z,18.88
2023-02-16T17:21:47.232Z,18.97
2023-02-16T17:24:16.210Z,18.93
2023-02-16T17:26:44.833Z,18.90
2023-02-16T17:29:13.178Z,18.83
2023-02-16T17:31:41.823Z,18.80
2023-02-16T17:34:10.144Z,18.70
2023-02-16T17:36:38.997Z,18.68
2023-02-16T17:39:08.641Z,18.65
2023-02-16T17:41:37.338Z,18.64
2023-02-16T17:44:05.780Z,18.65
2023-02-16T17:46:34.480Z,18.56
2023-02-16T17:49:02.906Z,18.54
2023-02-16T17:51:36.507Z,18.51
2023-02-16T17:54:06.600Z,18.48
2023-02-16T17:56:36.091Z,18.43
2023-02-16T17:59:04.513Z,18.41
2023-02-16T18:01:34.995Z,18.40
2023-02-16T18:04:04.400Z,18.39
2023-02-16T18:06:33.003Z,18.39
2023-02-16T18:09:01.290Z,18.41
2023-02-16T18:11:30.000Z,18.51
2023-02-16T18:13:58.293Z,18.49
2023-02-16T18:16:27.652Z,18.56
2023-02-16T18:18:57.515Z,18.71
2023-02-16T18:21:26.413Z,18.72
2023-02-16T18:23:54.808Z,18.67
2023-02-16T18:26:23.931Z,18.79
2023-02-16T18:28:52.390Z,18.91
2023-02-16T18:31:21.212Z,18.92
2023-02-16T18:33:49.674Z,18.91
2023-02-16T18:36:18.386Z,18.83
2023-02-16T18:38:46.781Z,18.82
2023-02-16T18:41:15.494Z,18.82
2023-02-16T18:43:43.850Z,18.76
2023-02-16T18:46:12.508Z,18.74
2023-02-16T18:48:40.820Z,18.70
2023-02-16T18:51:10.037Z,18.64
2023-02-16T18:53:38.636Z,18.57
2023-02-16T18:56:08.472Z,18.52
2023-02-16T18:58:37.089Z,18.50
2023-02-16T19:01:33.511Z,18.48
2023-02-16T19:04:02.835Z,18.40
2023-02-16T19:06:31.569Z,18.38
2023-02-16T19:09:00.458Z,18.37
2023-02-16T19:11:31.041Z,18.40
2023-02-16T19:13:59.427Z,18.40
2023-02-16T19:16:28.295Z,18.39
2023-02-16T19:18:56.640Z,18.33
2023-02-16T19:21:25.947Z,18.34
2023-02-16T19:23:54.235Z,18.30
2023-02-16T19:26:23.140Z,18.33
2023-02-16T19:28:52.927Z,18.26
2023-02-16T19:31:25.552Z,18.25
2023-02-16T19:33:53.991Z,18.19
2023-02-16T19:36:23.147Z,18.20
2023-02-16T19:38:51.644Z,18.18
2023-02-16T19:41:26.578Z,18.18
2023-02-16T19:43:55.064Z,18.17
2023-02-16T19:46:24.554Z,18.13
2023-02-16T19:48:55.079Z,18.14
2023-02-16T19:51:23.880Z,18.10
2023-02-16T19:53:52.363Z,18.08
2023-02-16T19:56:24.059Z,18.07
2023-02-16T19:58:52.680Z,18.08
2023-02-16T20:01:23.742Z,18.11
2023-02-16T20:03:52.582Z,18.26
2023-02-16T20:06:32.487Z,18.34
2023-02-16T20:09:01.091Z,18.33
2023-02-16T20:11:29.942Z,18.46
2023-02-16T20:13:58.416Z,18.43
2023-02-16T20:16:27.753Z,18.58
2023-02-16T20:18:57.166Z,18.58
2023-02-16T20:21:27.758Z,18.61
2023-02-16T20:23:59.123Z,18.60
2023-02-16T20:26:42.851Z,18.64
2023-02-16T20:29:15.253Z,18.62
2023-02-16T20:31:55.492Z,18.56
2023-02-16T20:34:26.266Z,18.56
2023-02-16T20:36:55.194Z,18.54
2023-02-16T20:39:23.675Z,18.49
2023-02-16T20:41:53.183Z,18.46
2023-02-16T20:44:22.940Z,18.43
2023-02-16T20:46:52.143Z,18.44
2023-02-16T20:49:20.875Z,18.39
2023-02-16T20:51:50.046Z,18.35
2023-02-16T20:54:19.086Z,18.33
2023-02-16T20:56:48.384Z,18.30
2023-02-16T20:59:16.944Z,18.30
2023-02-16T21:01:51.864Z,18.22
2023-02-16T21:04:21.975Z,18.23
2023-02-16T21:06:50.938Z,18.20
2023-02-16T21:09:19.513Z,18.18
2023-02-16T21:11:48.440Z,18.17
2023-02-16T21:14:17.372Z,18.12
2023-02-16T21:16:46.892Z,18.10
2023-02-16T21:19:22.790Z,18.06
2023-02-16T21:21:52.721Z,18.05
2023-02-16T21:24:21.584Z,18.03
2023-02-16T21:26:50.541Z,17.98
2023-02-16T21:29:19.104Z,17.96
2023-02-16T21:31:48.139Z,17.92
2023-02-16T21:34:16.774Z,17.89
2023-02-16T21:36:49.986Z,17.87
2023-02-16T21:39:19.265Z,17.87
2023-02-16T21:41:48.955Z,17.84
2023-02-16T21:44:18.523Z,17.82
2023-02-16T21:46:47.908Z,17.76
2023-02-16T21:49:18.922Z,17.80
2023-02-16T21:51:48.282Z,17.77
2023-02-16T21:54:39.045Z,17.74
2023-02-16T21:57:08.392Z,17.75
2023-02-16T21:59:36.980Z,17.77
2023-02-16T22:02:06.303Z,17.79
2023-02-16T22:04:34.918Z,17.83
2023-02-16T22:07:03.901Z,17.91
2023-02-16T22:09:32.581Z,17.90
2023-02-16T22:12:01.649Z,17.93
2023-02-16T22:14:30.233Z,17.86
2023-02-16T22:16:59.430Z,17.92
2023-02-16T22:19:27.949Z,17.90
2023-02-16T22:21:57.150Z,17.88
2023-02-16T22:24:25.759Z,17.88
2023-02-16T22:26:54.634Z,17.84
2023-02-16T22:29:23.110Z,17.85
2023-02-16T22:31:52.018Z,17.82
2023-02-16T22:34:22.736Z,17.72
2023-02-16T22:36:52.056Z,17.77
2023-02-16T22:39:20.825Z,17.74
2023-02-16T22:41:51.132Z,17.73
2023-02-16T22:44:19.835Z,17.69
2023-02-16T22:46:49.224Z,17.67
2023-02-16T22:49:17.956Z,17.66
2023-02-16T22:51:46.913Z,17.61
2023-02-16T22:54:15.446Z,17.64
2023-02-16T22:56:44.417Z,17.61
2023-02-16T22:59:13.030Z,17.58
2023-02-16T23:01:42.278Z,17.57
2023-02-16T23:04:15.686Z,17.52
2023-02-16T23:06:45.442Z,17.56
2023-02-16T23:09:19.961Z,17.51
2023-02-16T23:11:49.255Z,17.50
2023-02-16T23:14:18.888Z,17.49
2023-02-16T23:16:51.226Z,17.49
2023-02-16T23:19:23.491Z,17.45
2023-02-16T23:21:53.773Z,17.39
2023-02-16T23:24:23.284Z,17.41
2023-02-16T23:26:53.102Z,17.38
2023-02-16T23:29:21.721Z,17.38
2023-02-16T23:31:50.805Z,17.36
2023-02-16T23:34:19.806Z,17.31
2023-02-16T23:36:48.665Z,17.34
2023-02-16T23:39:18.559Z,17.28
2023-02-16T23:41:47.505Z,17.28
2023-02-16T23:44:16.235Z,17.27
2023-02-16T23:46:45.219Z,17.26
2023-02-16T23:49:13.740Z,17.23
2023-02-16T23:51:42.690Z,17.11
2023-02-16T23:54:11.714Z,17.20
2023-02-16T23:56:41.578Z,17.15
2023-02-16T23:59:10.192Z,17.19
